Time;durP1;ratioP1;P1;durP2;ratioP2;P2;SDS_P1;SDS_P2;PMS_P1;PMS_P2;Temp;Humidity;BMP_temperature;BMP_pressure;BME280_temperature;BME280_humidity;BME280_pressure;Samples;Min_cycle;Max_cycle;Signal;HPM_P1;HPM_P2
2023/01/05 06:19:45;;;;;;;0.10;0.10;;;;;;;8.19;100.00;96634.44;4932160;29;20067;-90
2023/01/05 06:22:11;;;;;;;0.50;0.20;;;;;;;8.19;100.00;96634.44;4898553;29;20036;-90
2023/01/05 06:24:37;;;;;;;0.50;0.20;;;;;;;8.19;100.00;96633.63;4901833;29;20034;-91
2023/01/05 06:27:02;;;;;;;0.33;0.10;;;;;;;8.21;100.00;96637.72;4905010;29;20043;-90
2023/01/05 06:29:28;;;;;;;0.20;0.13;;;;;;;8.27;100.00;96650.31;4916854;29;20016;-90
2023/01/05 06:31:54;;;;;;;0.10;0.10;;;;;;;8.26;100.00;96646.03;4907178;29;20426;-90
2023/01/05 06:34:20;;;;;;;0.47;0.20;;;;;;;8.24;100.00;96650.56;4902875;29;20044;-91
2023/01/05 06:36:46;;;;;;;0.27;0.20;;;;;;;8.22;100.00;96659.56;4916445;29;20517;-91
2023/01/05 06:39:11;;;;;;;2.77;0.70;;;;;;;8.22;100.00;96657.75;4900349;29;20032;-91
2023/01/05 06:41:37;;;;;;;1.57;0.40;;;;;;;8.24;100.00;96666.28;4899291;29;20031;-90
2023/01/05 06:44:04;;;;;;;2.90;0.53;;;;;;;8.18;100.00;96661.63;4902172;29;20040;-91
2023/01/05 06:46:30;;;;;;;1.20;0.37;;;;;;;8.18;100.00;96663.38;4894381;29;20040;-90
2023/01/05 06:48:56;;;;;;;1.03;0.40;;;;;;;8.21;100.00;96669.19;4900094;29;20044;-90
2023/01/05 06:51:22;;;;;;;0.97;0.37;;;;;;;8.18;100.00;96679.09;4900025;29;20126;-91
2023/01/05 06:53:47;;;;;;;2.73;0.50;;;;;;;8.19;100.00;96688.63;4918851;29;20031;-91
2023/01/05 06:56:13;;;;;;;0.73;0.30;;;;;;;8.07;100.00;96680.03;4903889;29;20027;-91
2023/01/05 06:58:39;;;;;;;2.27;0.50;;;;;;;8.02;100.00;96679.63;4935190;29;20062;-91
2023/01/05 07:01:04;;;;;;;2.47;0.80;;;;;;;7.94;100.00;96695.16;4923134;29;20070;-92
2023/01/05 07:03:30;;;;;;;5.80;1.40;;;;;;;7.80;100.00;96686.69;4929722;29;20058;-91
2023/01/05 07:05:56;;;;;;;7.77;1.90;;;;;;;7.78;100.00;96703.50;4914834;29;20031;-96
2023/01/05 07:08:22;;;;;;;12.13;2.90;;;;;;;7.71;100.00;96697.09;4915275;29;20066;-93
2023/01/05 07:10:48;;;;;;;7.80;2.40;;;;;;;7.66;100.00;96694.88;4919593;29;20465;-93
2023/01/05 07:13:14;;;;;;;10.77;2.00;;;;;;;7.59;100.00;96708.63;4915652;29;20032;-92
2023/01/05 07:15:40;;;;;;;7.63;2.07;;;;;;;7.52;100.00;96711.75;4913340;29;20067;-91
2023/01/05 07:18:06;;;;;;;7.50;1.60;;;;;;;7.46;100.00;96707.03;4906615;29;20055;-92
2023/01/05 07:20:47;;;;;;;9.27;1.87;;;;;;;7.47;100.00;96710.47;4927549;29;20031;-92
2023/01/05 07:23:13;;;;;;;10.87;1.93;;;;;;;7.43;100.00;96724.78;4921084;29;20039;-92
2023/01/05 07:25:38;;;;;;;9.00;2.40;;;;;;;7.45;100.00;96717.63;4921904;29;20501;-89
2023/01/05 07:28:06;;;;;;;7.53;1.53;;;;;;;7.44;100.00;96719.41;4919441;29;20142;-90
2023/01/05 07:30:31;;;;;;;8.63;1.50;;;;;;;7.42;100.00;96718.72;4912991;29;20031;-90
2023/01/05 07:32:59;;;;;;;6.83;1.30;;;;;;;7.41;100.00;96719.69;4918932;29;20406;-90
2023/01/05 07:35:26;;;;;;;22.30;6.60;;;;;;;7.43;100.00;96719.53;4907240;29;20042;-90
2023/01/05 07:37:54;;;;;;;7.13;1.47;;;;;;;7.43;100.00;96736.06;4904643;29;20039;-90
2023/01/05 07:40:19;;;;;;;6.60;1.60;;;;;;;7.41;100.00;96739.75;4916449;29;20032;-91
2023/01/05 07:42:52;;;;;;;8.80;1.93;;;;;;;7.39;100.00;96739.06;4916677;29;20051;-91
2023/01/05 07:45:19;;;;;;;2.58;1.00;;;;;;;7.44;100.00;96742.13;4921865;29;20047;-90
2023/01/05 07:47:45;;;;;;;7.97;2.27;;;;;;;7.42;100.00;96738.81;4913318;29;20047;-91
2023/01/05 07:50:11;;;;;;;12.07;2.27;;;;;;;7.44;100.00;96747.34;4905335;29;20486;-91
2023/01/05 07:52:38;;;;;;;10.93;2.37;;;;;;;7.44;100.00;96747.34;4900373;29;20032;-91
2023/01/05 07:55:05;;;;;;;12.37;1.70;;;;;;;7.50;100.00;96745.06;4904166;29;20031;-91
2023/01/05 07:57:30;;;;;;;14.27;2.30;;;;;;;7.47;100.00;96753.16;4918432;29;20028;-91
2023/01/05 07:59:56;;;;;;;9.37;1.70;;;;;;;7.50;100.00;96757.31;4904359;29;20139;-91
2023/01/05 08:02:22;;;;;;;6.73;1.40;;;;;;;7.62;100.00;96753.69;4901413;29;20074;-92
2023/01/05 08:04:48;;;;;;;7.50;1.50;;;;;;;7.66;100.00;96765.56;4909084;29;20039;-91
2023/01/05 08:07:14;;;;;;;10.37;2.37;;;;;;;7.63;100.00;96775.47;4918482;29;20036;-91
2023/01/05 08:12:27;;;;;;;8.67;2.53;;;;;;;7.60;100.00;96762.63;4903937;29;20043;-91
2023/01/05 08:14:52;;;;;;;9.03;2.07;;;;;;;7.64;100.00;96771.88;4891169;29;20320;-91
2023/01/05 08:17:19;;;;;;;9.50;2.20;;;;;;;7.67;100.00;96775.06;4907176;29;20028;-90
2023/01/05 08:19:45;;;;;;;8.57;1.63;;;;;;;7.67;100.00;96790.78;4886270;29;20106;-91
2023/01/05 08:22:11;;;;;;;13.73;2.30;;;;;;;7.68;100.00;96783.75;4915713;29;20107;-91
2023/01/05 08:24:36;;;;;;;7.40;2.13;;;;;;;7.63;100.00;96783.31;4904828;29;20038;-91
2023/01/05 08:27:03;;;;;;;11.77;2.93;;;;;;;7.73;100.00;96782.41;4904136;29;20056;-90
2023/01/05 08:29:29;;;;;;;10.90;1.93;;;;;;;7.74;100.00;96789.28;4896375;29;20108;-91
2023/01/05 08:31:55;;;;;;;9.70;2.13;;;;;;;7.78;100.00;96790.72;4884036;29;20028;-92
2023/01/05 08:34:21;;;;;;;9.73;2.63;;;;;;;7.79;100.00;96791.56;4888555;29;20052;-93
2023/01/05 08:36:47;;;;;;;9.50;1.80;;;;;;;7.79;100.00;96802.03;4912532;29;20092;-92
2023/01/05 08:39:13;;;;;;;8.63;1.50;;;;;;;7.87;100.00;96791.72;4901973;29;20052;-93
2023/01/05 08:41:39;;;;;;;6.43;1.90;;;;;;;7.88;100.00;96785.56;4904569;29;20032;-92
2023/01/05 08:44:14;;;;;;;9.03;2.13;;;;;;;7.92;100.00;96793.97;4889189;29;20066;-92
2023/01/05 08:46:45;;;;;;;9.20;1.80;;;;;;;7.94;100.00;96797.28;4903546;29;20789;-92
2023/01/05 08:49:11;;;;;;;10.50;2.83;;;;;;;8.01;100.00;96799.28;4894193;29;20050;-92
2023/01/05 08:51:37;;;;;;;7.40;1.90;;;;;;;8.04;100.00;96800.78;4889074;29;20032;-92
2023/01/05 08:54:03;;;;;;;8.53;1.80;;;;;;;7.98;100.00;96803.91;4880695;29;20090;-92
2023/01/05 08:56:28;;;;;;;8.40;1.83;;;;;;;8.06;100.00;96814.59;4899026;29;20483;-92
2023/01/05 08:58:54;;;;;;;8.13;2.67;;;;;;;7.93;100.00;96813.97;4900666;29;20586;-92
2023/01/05 09:01:23;;;;;;;11.17;4.00;;;;;;;7.95;100.00;96810.25;4898093;29;20063;-92
2023/01/05 09:03:49;;;;;;;11.77;2.80;;;;;;;7.98;100.00;96817.00;4900525;29;20032;-92
2023/01/05 09:06:15;;;;;;;7.60;2.30;;;;;;;7.99;100.00;96814.28;4897367;29;20054;-93
2023/01/05 09:08:43;;;;;;;11.80;2.57;;;;;;;7.97;100.00;96820.59;4906598;29;20428;-92
2023/01/05 09:11:18;;;;;;;12.80;2.50;;;;;;;7.96;100.00;96821.56;4916098;29;20054;-89
2023/01/05 09:13:47;;;;;;;8.57;3.47;;;;;;;8.05;100.00;96820.78;4898369;29;20032;-90
2023/01/05 09:16:35;;;;;;;5.27;2.07;;;;;;;8.01;100.00;96824.59;4927431;29;20031;-92
2023/01/05 09:19:03;;;;;;;9.37;2.00;;;;;;;8.07;100.00;96824.09;4925775;29;20032;-90
2023/01/05 09:21:34;;;;;;;8.50;2.37;;;;;;;8.05;100.00;96833.91;4914887;29;20102;-90
2023/01/05 09:23:59;;;;;;;6.97;1.90;;;;;;;8.12;100.00;96831.59;4921180;29;20039;-90
2023/01/05 09:26:25;;;;;;;13.57;2.20;;;;;;;8.09;100.00;96830.06;4930731;29;20039;-90
2023/01/05 09:28:51;;;;;;;18.93;5.40;;;;;;;8.07;100.00;96837.19;4903430;29;20127;-90
2023/01/05 09:31:21;;;;;;;11.60;2.00;;;;;;;8.09;100.00;96832.66;4921749;29;20039;-90
2023/01/05 09:33:47;;;;;;;8.50;1.83;;;;;;;8.14;100.00;96835.72;4917657;29;20107;-90
2023/01/05 09:36:15;;;;;;;9.90;1.90;;;;;;;8.10;100.00;96839.56;4907620;29;20032;-90
2023/01/05 09:38:41;;;;;;;7.33;1.53;;;;;;;8.16;100.00;96844.28;4931265;29;20039;-90
2023/01/05 09:41:21;;;;;;;10.53;2.00;;;;;;;8.16;100.00;96849.53;4926693;29;20040;-90
2023/01/05 09:43:57;;;;;;;7.73;2.53;;;;;;;8.16;100.00;96846.91;4910499;29;20047;-90
2023/01/05 09:46:35;;;;;;;27.47;5.27;;;;;;;8.17;100.00;96856.41;4919002;29;20040;-90
2023/01/05 09:49:05;;;;;;;11.50;2.23;;;;;;;8.14;100.00;96856.69;4908913;29;20067;-89
2023/01/05 09:51:33;;;;;;;12.90;2.20;;;;;;;8.19;100.00;96865.00;4910266;29;20063;-90
2023/01/05 09:54:00;;;;;;;12.53;2.80;;;;;;;8.15;100.00;96860.97;4926281;29;20502;-89
2023/01/05 09:56:38;;;;;;;13.63;3.47;;;;;;;8.09;100.00;96866.72;4917703;29;20050;-91
2023/01/05 09:59:11;;;;;;;11.30;2.87;;;;;;;8.10;100.00;96864.94;4935684;29;20050;-90
2023/01/05 10:01:38;;;;;;;30.50;3.80;;;;;;;8.24;100.00;96868.03;4919219;29;20095;-90
2023/01/05 10:04:11;;;;;;;8.47;1.83;;;;;;;8.31;100.00;96860.50;4924374;29;20095;-91
2023/01/05 10:06:42;;;;;;;7.85;3.38;;;;;;;8.34;100.00;96856.78;4943336;29;20067;-91
2023/01/05 10:09:15;;;;;;;13.50;2.20;;;;;;;8.27;100.00;96851.25;4913737;29;20064;-91
2023/01/05 10:15:15;;;;;;;10.03;3.30;;;;;;;8.24;100.00;96859.34;4891425;29;20036;-92
2023/01/05 10:17:41;;;;;;;12.87;2.07;;;;;;;8.21;100.00;96860.44;4912632;29;20108;-92
2023/01/05 10:20:20;;;;;;;10.00;1.77;;;;;;;8.31;100.00;96852.63;4925798;29;20119;-90
2023/01/05 10:22:57;;;;;;;7.03;2.10;;;;;;;8.32;100.00;96856.09;4904191;29;20039;-90
2023/01/05 10:25:27;;;;;;;11.23;1.70;;;;;;;8.30;100.00;96840.50;4913078;29;20107;-90
2023/01/05 10:28:19;;;;;;;11.23;1.67;;;;;;;8.31;100.00;96844.78;4888405;29;20123;-90
2023/01/05 10:30:54;;;;;;;15.97;1.90;;;;;;;8.26;100.00;96839.09;4903905;29;20127;-90
2023/01/05 10:33:40;;;;;;;11.27;1.73;;;;;;;8.29;100.00;96840.66;4905447;29;20056;-91
2023/01/05 10:36:25;;;;;;;9.20;1.77;;;;;;;8.38;100.00;96837.25;4921638;29;20038;-91
2023/01/05 10:43:08;;;;;;;7.20;1.53;;;;;;;8.58;100.00;96833.75;4903883;29;20067;-92
2023/01/05 10:45:57;;;;;;;13.07;2.40;;;;;;;8.53;100.00;96828.09;4873921;29;20077;-92
2023/01/05 10:48:30;;;;;;;12.67;1.87;;;;;;;8.55;100.00;96831.41;4874189;29;20484;-92
2023/01/05 10:50:57;;;;;;;10.15;2.97;;;;;;;8.52;100.00;96825.59;4878894;29;20036;-91
2023/01/05 10:53:26;;;;;;;14.03;5.00;;;;;;;8.58;100.00;96814.56;4898885;29;20040;-92
2023/01/05 10:56:13;;;;;;;11.97;1.97;;;;;;;8.57;100.00;96816.38;4898630;29;20036;-92
2023/01/05 10:58:42;;;;;;;8.83;2.07;;;;;;;8.52;100.00;96823.81;4900895;29;20040;-92
2023/01/05 11:01:28;;;;;;;10.87;2.00;;;;;;;8.46;100.00;96819.09;4903793;29;20040;-92
2023/01/05 11:04:23;;;;;;;19.83;3.97;;;;;;;8.53;100.00;96825.47;4913940;29;20040;-92
2023/01/05 11:06:50;;;;;;;10.47;2.87;;;;;;;8.52;100.00;96815.09;4892043;29;20104;-92
2023/01/05 11:09:19;;;;;;;8.80;2.80;;;;;;;8.58;100.00;96807.53;4914045;29;20086;-92
2023/01/05 11:11:53;;;;;;;10.97;2.40;;;;;;;8.55;100.00;96797.34;4919072;29;20386;-91
2023/01/05 11:14:19;;;;;;;7.90;1.67;;;;;;;8.70;100.00;96790.75;4920600;29;20044;-92
2023/01/05 11:16:52;;;;;;;9.23;2.10;;;;;;;8.72;100.00;96786.22;4917327;29;20020;-91
2023/01/05 11:19:24;;;;;;;13.48;3.42;;;;;;;8.77;100.00;96804.16;4891849;29;20040;-91
2023/01/05 11:21:50;;;;;;;11.87;2.50;;;;;;;8.67;100.00;96804.13;4884965;29;20143;-91
2023/01/05 11:24:31;;;;;;;15.13;3.20;;;;;;;8.73;100.00;96806.22;4889076;29;20123;-91
2023/01/05 11:27:23;;;;;;;13.70;3.13;;;;;;;8.78;100.00;96804.97;4908703;29;20044;-91
2023/01/05 11:30:19;;;;;;;13.83;2.83;;;;;;;8.70;100.00;96806.47;4914351;29;20085;-91
2023/01/05 11:32:46;;;;;;;11.43;2.00;;;;;;;8.75;100.00;96811.31;4903341;29;20403;-91
2023/01/05 11:35:30;;;;;;;16.43;3.17;;;;;;;8.81;100.00;96802.91;4895744;29;20044;-90
2023/01/05 11:37:59;;;;;;;10.70;2.22;;;;;;;8.70;100.00;96800.41;4889696;29;20040;-91
2023/01/05 11:40:31;;;;;;;15.90;2.87;;;;;;;8.84;100.00;96802.66;4912503;29;20051;-91
2023/01/05 11:42:59;;;;;;;13.17;2.60;;;;;;;8.84;100.00;96793.97;4908523;29;20063;-88
2023/01/05 11:45:39;;;;;;;10.83;2.27;;;;;;;8.87;100.00;96796.31;4895891;29;20044;-89
2023/01/05 11:48:14;;;;;;;22.20;3.20;;;;;;;8.87;100.00;96789.28;4914393;29;20043;-90
2023/01/05 11:50:52;;;;;;;13.10;4.10;;;;;;;8.94;100.00;96797.44;4875411;29;20040;-90
2023/01/05 11:53:33;;;;;;;11.17;2.73;;;;;;;8.94;100.00;96802.69;4913570;28;20047;-90
2023/01/05 11:56:21;;;;;;;9.73;1.80;;;;;;;8.84;100.00;96786.09;4905468;29;20041;-90
2023/01/05 11:58:59;;;;;;;13.17;2.53;;;;;;;8.89;100.00;96786.53;4899376;29;20046;-90
2023/01/05 12:02:32;;;;;;;10.87;2.33;;;;;;;8.90;100.00;96794.25;4912285;29;20036;-90
2023/01/05 12:05:53;;;;;;;17.07;2.37;;;;;;;8.94;100.00;96785.13;4839996;29;20053;-90
2023/01/05 12:08:51;;;;;;;25.20;4.13;;;;;;;9.05;100.00;96794.69;4833639;29;20412;-90
2023/01/05 12:11:20;;;;;;;14.33;2.60;;;;;;;8.88;100.00;96797.97;4887396;29;20104;-90
2023/01/05 12:13:59;;;;;;;16.00;3.13;;;;;;;9.00;100.00;96791.66;4892518;29;20032;-91
2023/01/05 12:16:44;;;;;;;12.37;2.23;;;;;;;8.95;100.00;96783.34;4905784;29;20046;-91
2023/01/05 12:19:34;;;;;;;16.13;2.53;;;;;;;9.08;100.00;96799.66;4906180;29;20043;-91
2023/01/05 12:22:12;;;;;;;11.67;2.23;;;;;;;9.00;100.00;96791.66;4918272;29;20048;-91
2023/01/05 12:24:47;;;;;;;12.00;2.10;;;;;;;9.05;100.00;96797.28;4896932;29;20039;-91
2023/01/05 12:27:26;;;;;;;14.50;2.70;;;;;;;9.21;100.00;96794.97;4900414;29;20032;-91
2023/01/05 12:30:09;;;;;;;9.13;2.30;;;;;;;8.94;100.00;96795.63;4895703;29;20032;-91
2023/01/05 12:32:47;;;;;;;18.60;2.97;;;;;;;8.91;100.00;96803.75;4902047;29;20028;-92
2023/01/05 12:35:16;;;;;;;12.63;3.30;;;;;;;8.74;100.00;96799.19;4905572;29;20031;-92
2023/01/05 12:38:11;;;;;;;13.23;2.77;;;;;;;8.74;100.00;96800.00;4891938;29;20417;-91
2023/01/05 12:40:37;;;;;;;17.30;6.23;;;;;;;8.78;100.00;96815.47;4887601;29;20040;-93
2023/01/05 12:43:18;;;;;;;15.63;3.37;;;;;;;8.58;100.00;96814.56;4895258;29;20043;-92
2023/01/05 12:46:27;;;;;;;13.17;2.80;;;;;;;8.63;100.00;96809.78;4901017;29;20047;-93
2023/01/05 12:48:59;;;;;;;12.90;2.90;;;;;;;8.62;100.00;96814.19;4913631;29;20039;-90
2023/01/05 12:51:38;;;;;;;10.30;2.53;;;;;;;8.55;100.00;96814.84;4904200;29;20055;-88
2023/01/05 12:54:23;;;;;;;13.03;2.63;;;;;;;8.58;100.00;96815.41;4913256;29;20063;-90
2023/01/05 12:56:57;;;;;;;14.63;3.10;;;;;;;8.50;100.00;96820.50;4899714;29;20136;-92
2023/01/05 13:00:34;;;;;;;14.50;3.70;;;;;;;8.48;100.00;96832.88;4903038;29;20032;-92
2023/01/05 18:33:05;;;;;;;11.30;3.27;;;;;;;7.29;100.00;96941.28;4864191;29;20072;-87
